Time;durP1;ratioP1;P1;durP2;ratioP2;P2;SDS_P1;SDS_P2;PMS_P1;PMS_P2;Temp;Humidity;BMP_temperature;BMP_pressure;BME280_temperature;BME280_humidity;BME280_pressure;Samples;Min_cycle;Max_cycle;Signal;HPM_P1;HPM_P2
2021/03/27 00:01:25;;;;;;;74.57;45.28;;;;;;;11.26;33.57;100813.22;4967200;28;96901;-75
2021/03/27 00:03:57;;;;;;;74.38;45.35;;;;;;;11.25;33.78;100816.72;4952904;28;97369;-75
2021/03/27 00:06:28;;;;;;;75.43;44.23;;;;;;;11.25;33.81;100813.19;5003974;28;97913;-75
2021/03/27 00:08:58;;;;;;;69.23;43.23;;;;;;;11.23;33.79;100808.72;4970997;28;97121;-76
2021/03/27 00:11:33;;;;;;;73.18;43.13;;;;;;;11.19;33.67;100801.56;4968829;28;96922;-74
2021/03/27 00:14:03;;;;;;;68.18;42.97;;;;;;;11.15;33.75;100798.78;5002982;27;97215;-75
2021/03/27 00:16:34;;;;;;;71.20;43.83;;;;;;;11.16;33.93;100792.56;4970486;28;99549;-77
2021/03/27 00:19:05;;;;;;;75.20;44.17;;;;;;;11.16;33.74;100789.91;4971090;28;96856;-75
2021/03/27 00:21:36;;;;;;;72.20;42.90;;;;;;;11.16;33.74;100784.59;4970686;28;96880;-77
2021/03/27 00:24:09;;;;;;;70.40;44.08;;;;;;;11.12;33.67;100791.63;4953830;28;96989;-74
2021/03/27 00:26:40;;;;;;;67.15;42.83;;;;;;;11.09;34.01;100790.66;4971859;28;99339;-75
2021/03/27 00:29:12;;;;;;;70.65;42.30;;;;;;;11.10;33.86;100787.16;4970168;28;96807;-75
2021/03/27 00:31:43;;;;;;;67.23;42.10;;;;;;;11.06;33.86;100777.31;4972491;28;96935;-74
2021/03/27 00:34:12;;;;;;;73.25;43.17;;;;;;;11.06;34.02;100780.88;4989234;28;97063;-74
2021/03/27 00:36:42;;;;;;;66.13;40.75;;;;;;;11.04;33.81;100774.63;4953987;28;98826;-75
2021/03/27 00:39:13;;;;;;;69.20;41.85;;;;;;;11.04;33.69;100769.31;4955733;28;99728;-74
2021/03/27 00:41:43;;;;;;;71.93;41.42;;;;;;;11.01;33.79;100773.66;4958288;28;97064;-74
2021/03/27 00:44:13;;;;;;;67.93;41.83;;;;;;;10.96;33.72;100773.56;4954912;28;97019;-74
2021/03/27 00:46:42;;;;;;;64.63;41.63;;;;;;;10.94;33.65;100777.09;4975925;28;97101;-76
2021/03/27 00:49:11;;;;;;;65.93;41.60;;;;;;;10.90;33.96;100764.56;4971734;28;97813;-75
2021/03/27 00:51:42;;;;;;;64.50;39.80;;;;;;;10.88;33.94;100761.88;4973559;28;96985;-75
2021/03/27 00:54:16;;;;;;;61.00;39.60;;;;;;;10.85;33.84;100761.81;4970910;28;97008;-74
2021/03/27 00:56:51;;;;;;;63.53;39.23;;;;;;;10.83;33.86;100760.00;4956501;28;97273;-75
2021/03/27 00:59:22;;;;;;;61.23;38.90;;;;;;;10.82;33.66;100756.44;4971924;28;96846;-76
2021/03/27 01:01:59;;;;;;;60.83;37.40;;;;;;;10.75;33.94;100753.63;4954888;28;96991;-77
2021/03/27 01:04:39;;;;;;;59.50;38.33;;;;;;;10.70;33.98;100749.97;4972991;28;96994;-76
2021/03/27 01:07:25;;;;;;;60.83;37.55;;;;;;;10.69;33.82;100753.47;4971589;28;98047;-76
2021/03/27 01:10:07;;;;;;;60.20;35.58;;;;;;;10.64;34.10;100750.75;4972982;28;98138;-75
2021/03/27 01:12:53;;;;;;;58.17;36.40;;;;;;;10.77;33.65;100747.47;4972734;28;97046;-74
2021/03/27 01:15:25;;;;;;;57.20;36.77;;;;;;;10.74;33.83;100741.19;4957703;28;97673;-75
2021/03/27 01:18:11;;;;;;;56.72;36.08;;;;;;;10.71;33.83;100738.44;4958843;28;99774;-75
2021/03/27 01:20:41;;;;;;;54.15;34.30;;;;;;;10.67;33.79;100734.84;5006593;28;99633;-76
2021/03/27 01:23:09;;;;;;;55.17;34.67;;;;;;;10.70;33.76;100734.00;4971302;28;96822;-76
2021/03/27 01:25:38;;;;;;;51.28;32.97;;;;;;;10.65;33.72;100720.59;4988032;28;97033;-75
2021/03/27 01:28:07;;;;;;;53.53;33.55;;;;;;;10.63;33.63;100710.81;4973451;28;96940;-75
2021/03/27 01:30:39;;;;;;;48.38;31.20;;;;;;;10.63;33.89;100710.81;4972121;28;99596;-75
2021/03/27 01:33:17;;;;;;;50.65;31.88;;;;;;;10.60;33.74;100710.72;4977194;28;96890;-75
2021/03/27 01:35:47;;;;;;;49.65;31.60;;;;;;;10.57;33.86;100706.25;4976205;28;97091;-76
2021/03/27 01:38:18;;;;;;;45.47;30.90;;;;;;;10.58;34.00;100707.13;4992552;28;100649;-76
2021/03/27 01:40:54;;;;;;;46.20;29.30;;;;;;;10.57;33.92;100705.34;4972687;28;96904;-75
2021/03/27 01:43:27;;;;;;;41.55;28.20;;;;;;;10.59;33.72;100708.94;5007977;28;97584;-76
2021/03/27 01:46:22;;;;;;;39.40;26.95;;;;;;;10.58;33.71;100709.78;5008061;28;97111;-74
2021/03/27 01:48:57;;;;;;;38.38;24.80;;;;;;;10.57;33.63;100706.25;4975425;28;97394;-75
2021/03/27 01:51:43;;;;;;;31.30;22.20;;;;;;;10.59;33.48;100708.94;4973750;28;97268;-75
2021/03/27 01:54:12;;;;;;;33.25;23.02;;;;;;;10.59;33.31;100703.63;4974840;28;96977;-76
2021/03/27 01:56:47;;;;;;;34.28;22.13;;;;;;;10.59;33.51;100692.97;4975833;28;97677;-75
2021/03/27 01:59:20;;;;;;;28.20;19.73;;;;;;;10.60;33.29;100694.75;4958579;28;98814;-75
2021/03/27 02:02:10;;;;;;;23.98;17.55;;;;;;;10.60;33.13;100694.75;4968367;28;98042;-77
2021/03/27 02:04:40;;;;;;;24.02;17.02;;;;;;;10.64;32.99;100694.88;4973764;28;97431;-74
2021/03/27 02:07:15;;;;;;;24.23;17.63;;;;;;;10.64;32.86;100699.28;4974071;28;97403;-76
2021/03/27 02:09:47;;;;;;;23.02;15.57;;;;;;;10.64;32.66;100694.88;4972522;28;97743;-75
2021/03/27 02:12:23;;;;;;;19.20;15.35;;;;;;;10.67;32.50;100702.00;4973069;28;97610;-74
2021/03/27 02:14:53;;;;;;;21.35;15.57;;;;;;;10.74;32.42;100694.16;4976448;28;96904;-75
2021/03/27 02:17:24;;;;;;;23.83;15.80;;;;;;;10.77;32.37;100698.66;4961426;28;96894;-75
2021/03/27 02:20:13;;;;;;;19.92;15.18;;;;;;;10.82;32.21;100699.63;4987815;28;99038;-76
2021/03/27 02:22:44;;;;;;;23.00;15.10;;;;;;;10.85;32.35;100697.06;4992042;28;97141;-76
2021/03/27 02:25:42;;;;;;;19.25;14.30;;;;;;;10.90;32.32;100696.22;4975814;28;96961;-77
2021/03/27 02:28:13;;;;;;;19.13;13.88;;;;;;;10.94;31.95;100689.22;4973228;28;96990;-75
2021/03/27 02:30:43;;;;;;;21.73;14.97;;;;;;;10.96;32.08;100690.13;4974632;28;96942;-76
2021/03/27 02:33:18;;;;;;;19.63;13.80;;;;;;;11.01;31.78;100691.13;4961233;28;97678;-77
2021/03/27 02:36:00;;;;;;;17.65;13.40;;;;;;;11.05;31.70;100684.97;4959656;28;97339;-76
2021/03/27 02:38:42;;;;;;;19.60;13.75;;;;;;;11.10;31.58;100678.84;4990787;28;97427;-76
2021/03/27 02:41:23;;;;;;;19.33;14.20;;;;;;;11.13;31.48;100673.59;5009588;27;97031;-76
2021/03/27 02:43:55;;;;;;;19.33;13.48;;;;;;;11.18;31.31;100682.56;5012751;28;96813;-77
2021/03/27 02:46:28;;;;;;;18.00;12.93;;;;;;;11.21;31.16;100684.38;4986234;28;97021;-75
2021/03/27 02:49:22;;;;;;;16.30;13.25;;;;;;;11.26;30.90;100688.00;4972051;28;96771;-75
2021/03/27 02:51:53;;;;;;;18.83;13.30;;;;;;;11.35;30.94;100685.53;4987067;28;97146;-75
2021/03/27 02:54:24;;;;;;;19.48;13.18;;;;;;;11.39;30.63;100681.16;4983973;28;98417;-75
2021/03/27 02:56:56;;;;;;;16.63;12.70;;;;;;;11.40;30.82;100677.59;4985812;28;96693;-75
2021/03/27 02:59:38;;;;;;;16.20;12.80;;;;;;;11.43;30.85;100672.34;4993349;28;97031;-76
2021/03/27 03:02:12;;;;;;;14.77;12.35;;;;;;;11.48;30.80;100670.63;4995578;28;97142;-76
2021/03/27 03:04:44;;;;;;;16.27;13.02;;;;;;;11.48;30.63;100668.88;4991338;28;97130;-76
2021/03/27 03:07:19;;;;;;;17.25;12.73;;;;;;;11.48;30.52;100668.88;4975192;28;96847;-76
2021/03/27 03:09:51;;;;;;;17.52;12.88;;;;;;;11.50;30.56;100668.91;5006829;27;96938;-75
2021/03/27 03:12:21;;;;;;;16.60;12.40;;;;;;;11.53;30.43;100668.94;4969757;28;98040;-76
2021/03/27 03:14:59;;;;;;;18.88;12.93;;;;;;;11.51;30.52;100658.25;5004837;27;97795;-75
2021/03/27 03:17:34;;;;;;;18.95;13.27;;;;;;;11.51;30.46;100660.00;4975553;28;96969;-76
2021/03/27 03:20:11;;;;;;;18.30;13.30;;;;;;;11.49;30.68;100660.00;4953821;28;97624;-75
2021/03/27 03:22:40;;;;;;;17.65;12.63;;;;;;;11.53;30.44;100659.19;4971307;28;97905;-76
2021/03/27 03:25:11;;;;;;;16.80;12.80;;;;;;;11.48;30.55;100657.31;4988235;28;97578;-77
2021/03/27 03:28:14;;;;;;;15.93;12.80;;;;;;;11.48;30.49;100658.22;4974405;28;96926;-76
2021/03/27 03:30:49;;;;;;;16.42;12.75;;;;;;;11.49;30.52;100652.00;4968701;28;97072;-76
2021/03/27 03:33:31;;;;;;;16.90;12.20;;;;;;;11.44;30.45;100651.03;4985390;28;97022;-76
2021/03/27 03:36:01;;;;;;;17.45;12.63;;;;;;;11.40;30.70;100645.63;4988615;28;97751;-76
2021/03/27 03:38:41;;;;;;;16.77;12.43;;;;;;;11.42;30.70;100652.78;5004955;28;96912;-76
2021/03/27 03:41:12;;;;;;;17.47;12.93;;;;;;;11.43;30.66;100646.59;4972828;28;97098;-76
2021/03/27 03:43:47;;;;;;;17.88;12.43;;;;;;;11.44;30.38;100644.81;4973424;28;97979;-76
2021/03/27 03:46:22;;;;;;;18.30;12.93;;;;;;;11.37;30.83;100645.59;4972796;28;97078;-76
2021/03/27 03:49:08;;;;;;;17.85;12.73;;;;;;;11.34;31.00;100641.13;4971427;28;96974;-76
2021/03/27 03:51:51;;;;;;;17.10;13.82;;;;;;;11.31;30.91;100638.41;4971626;28;96903;-77
2021/03/27 03:54:23;;;;;;;17.40;12.73;;;;;;;11.33;30.85;100638.41;4990704;28;98973;-76
2021/03/27 03:56:57;;;;;;;18.63;12.73;;;;;;;11.26;31.11;100634.72;4972219;28;97570;-76
2021/03/27 03:59:38;;;;;;;18.20;12.53;;;;;;;11.29;31.00;100632.13;4955556;28;96910;-76
2021/03/27 04:02:12;;;;;;;21.38;13.00;;;;;;;11.26;30.99;100634.72;4965179;28;96911;-76
2021/03/27 04:04:43;;;;;;;17.60;12.38;;;;;;;11.24;31.11;100631.16;4999837;28;97990;-76
2021/03/27 04:07:13;;;;;;;18.65;13.30;;;;;;;11.21;31.20;100628.44;4968945;28;97259;-76
2021/03/27 04:09:45;;;;;;;17.67;13.27;;;;;;;11.23;31.43;100625.81;4953956;28;96920;-77
2021/03/27 04:12:18;;;;;;;20.15;13.93;;;;;;;11.21;31.20;100620.47;4971364;28;96867;-76
2021/03/27 04:15:06;;;;;;;17.05;13.63;;;;;;;11.19;31.34;100623.09;4969426;28;96934;-76
2021/03/27 04:17:41;;;;;;;18.17;13.43;;;;;;;11.19;31.44;100611.53;4973363;28;98520;-76
2021/03/27 04:20:36;;;;;;;20.63;14.03;;;;;;;11.16;31.43;100608.81;4983065;28;96918;-76
2021/03/27 04:23:11;;;;;;;19.30;14.05;;;;;;;11.13;31.57;100600.78;4955456;28;96945;-76
2021/03/27 04:25:42;;;;;;;18.45;14.25;;;;;;;11.13;31.76;100603.44;4972516;28;97806;-76
2021/03/27 04:28:12;;;;;;;18.30;14.47;;;;;;;11.15;31.63;100604.38;4969430;28;98311;-76
2021/03/27 04:30:52;;;;;;;18.20;14.17;;;;;;;11.16;31.68;100595.50;4966601;28;97111;-76
2021/03/27 04:33:33;;;;;;;19.58;15.13;;;;;;;11.15;31.46;100596.38;4973453;28;96906;-76
2021/03/27 04:36:06;;;;;;;19.47;14.27;;;;;;;11.14;31.98;100600.81;4972183;28;99533;-76
2021/03/27 04:38:39;;;;;;;18.77;15.05;;;;;;;11.09;31.71;100590.94;4970497;28;97502;-76
2021/03/27 04:41:20;;;;;;;19.33;14.93;;;;;;;11.09;31.82;100590.94;4973292;28;96955;-76
2021/03/27 04:43:51;;;;;;;21.42;14.50;;;;;;;11.13;31.70;100595.47;4971925;28;97041;-75
2021/03/27 04:46:22;;;;;;;22.10;14.85;;;;;;;11.11;31.70;100583.88;4987090;28;98769;-75
2021/03/27 04:48:53;;;;;;;22.52;15.30;;;;;;;11.08;31.65;100589.16;4970722;28;96737;-76
2021/03/27 04:51:50;;;;;;;20.65;14.90;;;;;;;11.03;31.93;100598.84;4952990;28;97349;-76
2021/03/27 04:54:46;;;;;;;19.23;15.13;;;;;;;11.01;32.11;100592.63;4973601;28;97160;-77
2021/03/27 04:57:22;;;;;;;26.08;15.57;;;;;;;11.00;31.83;100598.78;4959789;28;99633;-76
2021/03/27 04:59:54;;;;;;;19.13;14.43;;;;;;;10.96;31.71;100597.84;4971582;28;96938;-77
2021/03/27 05:02:30;;;;;;;22.20;15.23;;;;;;;10.93;31.85;100588.91;4956640;28;97483;-75
2021/03/27 05:05:03;;;;;;;21.13;15.27;;;;;;;10.94;31.85;100596.06;4957117;28;96912;-75
2021/03/27 05:07:43;;;;;;;21.27;15.13;;;;;;;10.94;31.49;100606.69;4973269;28;98087;-74
2021/03/27 05:10:13;;;;;;;20.10;14.60;;;;;;;10.94;31.83;100604.03;4970586;28;97679;-77
2021/03/27 05:12:53;;;;;;;20.65;15.23;;;;;;;10.97;31.72;100601.41;4960454;28;98148;-76
2021/03/27 05:15:23;;;;;;;20.17;15.07;;;;;;;10.94;31.74;100606.69;5007758;28;97465;-76
2021/03/27 05:18:17;;;;;;;18.98;13.82;;;;;;;10.91;32.00;100607.53;4976271;28;97641;-76
2021/03/27 05:20:46;;;;;;;18.13;14.05;;;;;;;10.93;31.94;100607.56;4975359;28;96843;-77
2021/03/27 05:23:18;;;;;;;28.85;19.23;;;;;;;10.90;31.80;100605.72;4989103;28;97128;-75
2021/03/27 05:26:03;;;;;;;19.55;13.80;;;;;;;10.89;31.93;100608.38;4979359;28;97648;-77
2021/03/27 05:28:50;;;;;;;18.77;13.43;;;;;;;10.87;32.44;100610.09;4959960;28;97690;-77
2021/03/27 05:31:26;;;;;;;17.57;13.33;;;;;;;10.86;32.15;100621.63;5007456;27;98132;-76
2021/03/27 05:34:03;;;;;;;17.43;13.90;;;;;;;10.90;32.24;100612.84;4958983;28;97258;-77
2021/03/27 05:36:39;;;;;;;15.93;12.70;;;;;;;10.91;32.24;100610.19;4994701;28;96876;-77
2021/03/27 05:39:20;;;;;;;18.77;13.32;;;;;;;10.91;32.23;100609.28;4973506;28;99319;-75
2021/03/27 05:42:02;;;;;;;16.98;12.65;;;;;;;10.95;32.25;100619.13;4972664;28;96887;-76
2021/03/27 05:44:48;;;;;;;13.20;11.70;;;;;;;10.98;32.18;100619.16;4959353;28;97254;-75
2021/03/27 05:47:54;;;;;;;17.13;12.00;;;;;;;11.01;32.12;100620.09;4959950;28;98026;-74
2021/03/27 05:50:48;;;;;;;15.87;11.73;;;;;;;11.10;31.89;100622.06;4913708;28;99800;-77
2021/03/27 05:53:41;;;;;;;12.32;10.73;;;;;;;11.15;31.97;100633.66;4968990;28;99431;-77
2021/03/27 05:56:27;;;;;;;12.25;10.95;;;;;;;11.16;31.96;100636.34;4974996;28;98464;-73
2021/03/27 05:59:06;;;;;;;16.63;10.93;;;;;;;11.18;31.95;100647.03;4969585;28;97089;-76
2021/03/27 06:01:48;;;;;;;12.02;10.80;;;;;;;11.19;32.13;100656.81;4992040;28;98549;-76
2021/03/27 06:04:28;;;;;;;14.95;10.65;;;;;;;11.16;31.86;100705.59;4951331;28;98259;-75
2021/03/27 06:07:31;;;;;;;9.97;8.43;;;;;;;11.06;32.58;100738.28;5005606;28;97100;-76
2021/03/27 06:10:35;;;;;;;10.55;7.32;;;;;;;10.94;33.26;100766.44;4974178;28;97331;-77
2021/03/27 06:13:27;;;;;;;5.57;4.90;;;;;;;10.82;33.73;100776.81;5004903;28;100489;-75
2021/03/27 06:16:30;;;;;;;4.50;3.55;;;;;;;10.45;37.68;100775.16;4971523;28;97046;-76
2021/03/27 06:19:45;;;;;;;2.72;2.42;;;;;;;9.88;37.47;100795.97;4966713;28;96877;-73
2021/03/27 06:22:23;;;;;;;2.70;2.60;;;;;;;9.34;38.86;100825.53;4973035;28;97236;-76
2021/03/27 06:24:55;;;;;;;2.78;2.67;;;;;;;9.01;36.47;100842.34;4991198;28;97034;-75
2021/03/27 06:27:47;;;;;;;2.78;2.67;;;;;;;8.72;38.81;100847.66;4988787;28;97228;-75
2021/03/27 06:30:29;;;;;;;2.67;2.60;;;;;;;8.57;39.64;100848.09;4984552;28;96919;-75
2021/03/27 06:33:38;;;;;;;2.58;2.53;;;;;;;8.37;38.39;100875.72;5010429;27;96963;-73
2021/03/27 06:36:21;;;;;;;3.00;2.90;;;;;;;8.21;37.16;100906.16;4988300;28;97481;-76
2021/03/27 06:39:29;;;;;;;2.85;2.75;;;;;;;8.05;36.77;100922.41;5005804;27;98075;-76
2021/03/27 06:42:32;;;;;;;3.00;2.90;;;;;;;7.90;37.94;100931.56;4974304;28;97633;-75
2021/03/27 06:45:30;;;;;;;2.80;2.70;;;;;;;7.61;43.11;100930.56;4970024;28;96874;-75
2021/03/27 06:48:30;;;;;;;5.40;3.03;;;;;;;7.37;42.00;100963.16;4968207;28;97222;-76
2021/03/27 06:51:20;;;;;;;3.10;3.00;;;;;;;6.98;44.66;100995.22;4971042;28;98407;-76
2021/03/27 06:54:29;;;;;;;3.08;2.97;;;;;;;6.83;42.83;100985.78;4964425;28;96824;-74
2021/03/27 06:57:36;;;;;;;3.42;3.28;;;;;;;6.54;42.56;100979.34;4973051;28;96890;-76
2021/03/27 07:00:38;;;;;;;3.20;3.10;;;;;;;6.34;42.49;100977.66;4970237;28;99088;-73
2021/03/27 07:03:41;;;;;;;3.47;3.30;;;;;;;6.22;42.03;100983.28;4968835;28;98208;-77
2021/03/27 07:06:46;;;;;;;3.83;3.63;;;;;;;6.18;40.57;100968.13;4963883;28;97445;-76
2021/03/27 07:10:00;;;;;;;3.88;3.67;;;;;;;6.14;40.71;100965.31;4898979;28;98397;-75
2021/03/27 07:12:40;;;;;;;4.30;4.03;;;;;;;6.11;39.54;100968.72;4985018;28;99015;-76
2021/03/27 07:15:32;;;;;;;4.47;3.67;;;;;;;6.14;39.20;100974.13;4985189;28;97608;-76
2021/03/27 07:18:13;;;;;;;3.80;3.60;;;;;;;6.22;38.85;100985.00;4971897;28;98360;-77
2021/03/27 07:20:56;;;;;;;4.00;3.70;;;;;;;6.22;38.42;100982.38;4985734;28;96842;-76
2021/03/27 07:23:34;;;;;;;3.85;3.65;;;;;;;6.20;38.41;100995.50;4970293;28;98952;-76
2021/03/27 07:26:23;;;;;;;4.40;4.10;;;;;;;6.16;40.31;101004.16;4955883;28;97840;-76
2021/03/27 07:29:01;;;;;;;4.50;4.13;;;;;;;6.11;40.91;101026.84;4951045;28;96845;-77
2021/03/27 07:31:37;;;;;;;4.03;3.83;;;;;;;6.04;40.94;101003.63;4999961;28;97342;-76
2021/03/27 07:34:47;;;;;;;4.40;4.13;;;;;;;6.08;40.74;101002.94;4970153;28;97784;-75
2021/03/27 07:37:41;;;;;;;4.35;4.13;;;;;;;6.19;39.91;100998.09;4986556;28;99763;-75
2021/03/27 07:40:17;;;;;;;4.18;3.97;;;;;;;6.24;38.03;101002.75;4971692;28;96988;-75
2021/03/27 07:42:53;;;;;;;4.45;4.10;;;;;;;6.28;38.33;101021.38;4986919;28;96838;-75
2021/03/27 07:45:29;;;;;;;3.67;3.47;;;;;;;6.37;38.10;101040.28;4971000;28;99882;-75
2021/03/27 07:48:07;;;;;;;4.03;3.72;;;;;;;6.39;38.56;101044.81;4967656;28;98034;-75
2021/03/27 07:50:56;;;;;;;4.50;4.20;;;;;;;6.40;39.70;101061.56;5000189;28;96856;-76
2021/03/27 07:53:29;;;;;;;3.97;3.78;;;;;;;6.45;37.48;101055.59;4949241;28;97280;-75
2021/03/27 07:56:26;;;;;;;4.05;3.78;;;;;;;6.55;39.47;101075.41;4967466;28;99796;-76
2021/03/27 07:59:19;;;;;;;3.80;3.60;;;;;;;6.59;38.97;101077.34;4967401;28;96795;-76
2021/03/27 08:02:23;;;;;;;4.15;3.95;;;;;;;6.68;37.90;101089.22;4962345;28;96841;-76
2021/03/27 08:05:02;;;;;;;4.35;4.05;;;;;;;6.70;38.54;101081.34;4973510;28;99193;-77
2021/03/27 08:07:42;;;;;;;4.65;4.30;;;;;;;6.71;38.49;101078.75;4965359;28;97826;-77
2021/03/27 08:10:22;;;;;;;5.22;4.82;;;;;;;6.79;37.99;101079.06;4967458;28;97224;-76
2021/03/27 08:13:01;;;;;;;5.53;5.05;;;;;;;6.80;39.44;101102.94;4950395;28;96886;-76
2021/03/27 08:15:55;;;;;;;6.60;5.35;;;;;;;6.71;39.66;101099.00;4952883;28;96870;-76
2021/03/27 08:18:56;;;;;;;6.15;5.55;;;;;;;6.77;39.12;101093.97;4968712;28;99555;-76
2021/03/27 08:21:32;;;;;;;7.10;6.40;;;;;;;6.80;37.54;101117.91;4972923;28;96818;-75
2021/03/27 08:24:11;;;;;;;6.65;6.05;;;;;;;6.78;37.57;101104.59;4984410;28;97239;-76
2021/03/27 08:26:59;;;;;;;7.07;6.18;;;;;;;6.84;39.41;101106.59;4969627;28;96877;-78
2021/03/27 08:30:06;;;;;;;8.43;6.68;;;;;;;6.90;39.38;101122.75;4952466;28;98906;-75
2021/03/27 08:32:51;;;;;;;7.65;6.18;;;;;;;6.95;38.01;101100.00;4972869;28;98437;-79
2021/03/27 08:35:37;;;;;;;7.47;6.63;;;;;;;6.93;37.79;101120.22;5004866;28;96865;-76
2021/03/27 08:38:18;;;;;;;7.55;6.70;;;;;;;7.04;37.47;101146.28;4973639;28;96915;-76
2021/03/27 08:41:05;;;;;;;8.07;6.85;;;;;;;7.08;36.91;101136.72;4974024;28;98515;-76
2021/03/27 08:43:58;;;;;;;11.23;7.03;;;;;;;7.15;37.00;101138.78;4958393;28;99676;-78
2021/03/27 08:46:49;;;;;;;8.60;7.55;;;;;;;7.05;36.94;101178.94;4903903;28;97371;-77
2021/03/27 08:49:52;;;;;;;9.48;7.43;;;;;;;7.14;37.02;101142.28;4990471;28;97100;-75
2021/03/27 08:53:02;;;;;;;10.35;7.13;;;;;;;7.12;36.96;101159.81;4972606;28;99776;-76
2021/03/27 08:56:13;;;;;;;8.15;7.35;;;;;;;7.17;36.73;101164.47;4972213;28;100889;-75
2021/03/27 08:59:19;;;;;;;10.95;6.97;;;;;;;7.25;36.98;101163.00;4930950;28;96775;-75
2021/03/27 09:02:00;;;;;;;8.93;6.88;;;;;;;7.27;36.17;101171.91;4910852;28;97323;-76
2021/03/27 09:05:15;;;;;;;9.00;6.45;;;;;;;7.36;36.25;101203.19;4972059;28;98056;-76
2021/03/27 09:08:20;;;;;;;7.43;6.40;;;;;;;7.46;36.11;101178.91;4967052;28;97863;-76
2021/03/27 09:11:07;;;;;;;8.68;6.55;;;;;;;7.56;35.55;101190.78;4966593;28;97154;-78
2021/03/27 09:13:51;;;;;;;7.15;6.25;;;;;;;7.65;35.29;101207.94;4999498;28;97185;-77
2021/03/27 09:16:49;;;;;;;6.40;5.90;;;;;;;7.61;35.31;101192.75;4972624;28;99094;-77
2021/03/27 09:19:23;;;;;;;7.20;6.13;;;;;;;7.60;35.34;101198.00;4958548;28;99215;-75
2021/03/27 09:22:02;;;;;;;8.00;6.55;;;;;;;7.64;34.73;101203.47;4967130;28;96872;-76
2021/03/27 09:24:34;;;;;;;9.05;6.22;;;;;;;7.69;35.27;101209.84;4955402;28;97030;-76
2021/03/27 09:27:49;;;;;;;8.98;6.45;;;;;;;7.76;35.27;101206.63;4974485;28;97997;-76
2021/03/27 09:30:24;;;;;;;6.95;5.72;;;;;;;7.94;34.83;101212.63;4917282;28;97849;-76
2021/03/27 09:32:54;;;;;;;7.60;6.05;;;;;;;8.01;34.62;101204.06;4973656;28;97023;-75
2021/03/27 09:35:35;;;;;;;6.65;6.05;;;;;;;8.09;33.95;101202.56;4974149;28;96832;-75
2021/03/27 09:38:30;;;;;;;9.30;5.97;;;;;;;8.10;32.73;101212.34;5007332;28;97553;-75
2021/03/27 09:41:13;;;;;;;7.82;5.82;;;;;;;8.06;32.64;101210.44;4951177;28;100001;-77
2021/03/27 09:44:06;;;;;;;11.07;6.28;;;;;;;8.09;33.40;101218.47;4987334;28;97345;-76
2021/03/27 09:46:47;;;;;;;6.25;5.72;;;;;;;8.05;33.86;101198.03;4988704;28;97247;-75
2021/03/27 09:49:27;;;;;;;7.93;5.50;;;;;;;8.08;33.89;101195.50;4972471;28;97693;-76
2021/03/27 09:52:16;;;;;;;6.82;6.18;;;;;;;8.14;33.42;101210.72;4957918;28;98934;-76
2021/03/27 09:55:15;;;;;;;6.90;5.20;;;;;;;8.20;32.86;101203.88;4974343;28;96829;-76
2021/03/27 09:57:47;;;;;;;5.20;4.65;;;;;;;8.24;33.42;101239.38;5007406;27;96947;-76
2021/03/27 10:00:17;;;;;;;7.38;5.15;;;;;;;8.28;33.26;101213.91;5007940;28;97961;-77
2021/03/27 10:02:52;;;;;;;7.72;5.00;;;;;;;8.38;32.33;101231.94;4985244;28;96942;-76
2021/03/27 10:05:32;;;;;;;5.95;4.63;;;;;;;8.48;32.92;101215.53;4990688;28;96865;-77
2021/03/27 10:08:08;;;;;;;7.43;5.07;;;;;;;8.53;32.27;101243.16;4957496;28;96882;-77
2021/03/27 10:10:44;;;;;;;5.55;5.00;;;;;;;8.40;31.32;101252.38;5004532;28;98841;-75
2021/03/27 10:13:45;;;;;;;4.55;4.20;;;;;;;8.51;32.43;101234.22;4971851;28;97912;-76
2021/03/27 10:16:15;;;;;;;5.47;4.50;;;;;;;8.54;32.70;101226.38;4970460;28;96843;-76
2021/03/27 10:18:50;;;;;;;5.82;4.05;;;;;;;8.55;32.01;101225.56;4973620;28;96969;-75
2021/03/27 10:21:41;;;;;;;8.00;4.20;;;;;;;8.58;32.17;101231.88;4970089;28;100295;-76
2021/03/27 10:24:29;;;;;;;4.45;3.90;;;;;;;8.71;30.86;101209.31;4993366;28;97815;-77
2021/03/27 10:27:06;;;;;;;4.25;3.60;;;;;;;8.87;31.86;101222.28;5003995;28;96999;-76
2021/03/27 10:29:39;;;;;;;3.63;3.35;;;;;;;8.84;30.34;101214.22;5007092;28;96939;-76
2021/03/27 10:32:43;;;;;;;5.03;3.63;;;;;;;8.83;30.14;101217.72;4967893;28;98429;-76
2021/03/27 10:35:21;;;;;;;3.50;3.30;;;;;;;9.01;31.28;101226.31;4971237;28;97070;-76
2021/03/27 10:37:55;;;;;;;3.70;3.50;;;;;;;9.06;31.34;101238.00;5002639;28;97054;-77
2021/03/27 10:40:34;;;;;;;6.57;3.80;;;;;;;9.17;30.75;101223.31;5001343;28;96917;-78
2021/03/27 10:43:14;;;;;;;5.75;3.47;;;;;;;9.27;31.06;101222.78;4968028;28;99309;-76
2021/03/27 10:45:56;;;;;;;4.15;3.55;;;;;;;9.35;29.87;101239.91;5004241;28;97535;-76
2021/03/27 10:48:56;;;;;;;3.80;3.33;;;;;;;9.50;30.70;101221.81;4975248;28;96816;-77
2021/03/27 10:51:38;;;;;;;3.42;3.22;;;;;;;9.57;29.99;101247.72;4949538;28;97008;-76
2021/03/27 10:54:33;;;;;;;4.25;3.55;;;;;;;9.62;29.99;101234.59;4957204;28;99742;-76
2021/03/27 10:57:06;;;;;;;6.10;3.85;;;;;;;9.63;29.87;101231.06;4957654;28;98472;-76
2021/03/27 10:59:38;;;;;;;3.47;3.05;;;;;;;9.55;30.12;101273.38;4986170;28;96829;-77
2021/03/27 11:02:37;;;;;;;4.82;3.33;;;;;;;9.20;31.35;101305.75;5004197;27;97015;-76
2021/03/27 11:05:49;;;;;;;2.50;2.50;;;;;;;8.82;32.25;101343.28;5006531;28;99479;-76
2021/03/27 11:08:49;;;;;;;2.38;2.30;;;;;;;8.41;33.09;101309.84;4956809;28;98722;-76
2021/03/27 11:11:43;;;;;;;2.30;2.10;;;;;;;8.12;33.55;101321.09;4972810;28;97077;-76
2021/03/27 11:14:36;;;;;;;2.30;2.20;;;;;;;7.91;33.47;101307.88;4976886;28;96968;-76
2021/03/27 11:17:39;;;;;;;2.70;2.55;;;;;;;7.65;35.18;101335.06;4971517;28;100833;-76
2021/03/27 11:20:26;;;;;;;2.72;2.72;;;;;;;7.63;33.84;101331.44;5002369;27;96889;-76
2021/03/27 11:23:15;;;;;;;2.85;2.72;;;;;;;7.56;33.84;101334.69;4984006;28;96958;-75
2021/03/27 11:26:09;;;;;;;3.05;2.85;;;;;;;7.43;34.16;101348.25;4970260;28;97302;-76
2021/03/27 11:28:44;;;;;;;2.88;2.67;;;;;;;7.37;34.08;101363.81;4973559;28;100317;-76
2021/03/27 11:31:32;;;;;;;2.90;2.80;;;;;;;7.23;43.85;101359.69;4955117;28;98113;-76
2021/03/27 11:34:23;;;;;;;4.72;3.38;;;;;;;7.27;44.21;101347.47;4956469;28;96897;-76
2021/03/27 11:36:56;;;;;;;3.95;3.65;;;;;;;7.44;34.95;101386.22;4953350;28;96858;-77
2021/03/27 11:39:33;;;;;;;4.68;4.38;;;;;;;7.41;34.58;101371.09;4972823;28;100209;-75
2021/03/27 11:42:05;;;;;;;5.60;4.22;;;;;;;7.33;34.77;101391.00;4976890;28;97681;-77
2021/03/27 11:44:44;;;;;;;5.10;3.40;;;;;;;7.03;38.75;101417.03;4997814;28;97109;-76
2021/03/27 11:47:44;;;;;;;3.38;3.22;;;;;;;6.68;38.15;101445.31;4970461;28;97267;-75
2021/03/27 11:50:31;;;;;;;3.47;3.20;;;;;;;6.40;36.51;101452.78;4962717;28;98956;-76
2021/03/27 11:53:07;;;;;;;3.28;3.17;;;;;;;6.10;37.72;101433.63;4997635;28;99731;-77
2021/03/27 11:55:36;;;;;;;3.65;3.22;;;;;;;5.89;36.08;101459.88;4977113;28;97190;-76
2021/03/27 11:58:12;;;;;;;3.55;3.35;;;;;;;5.62;38.61;101474.31;4958799;28;96960;-77
2021/03/27 12:01:00;;;;;;;3.10;3.00;;;;;;;5.51;36.40;101462.28;4976003;28;100520;-77
2021/03/27 12:04:00;;;;;;;3.00;2.92;;;;;;;5.18;41.36;101478.97;4973930;28;97835;-77
2021/03/27 12:06:33;;;;;;;3.20;3.05;;;;;;;4.89;38.98;101463.28;4951550;28;97600;-76
2021/03/27 12:09:09;;;;;;;3.22;3.03;;;;;;;4.73;39.52;101443.09;5006559;27;97034;-78
2021/03/27 12:12:16;;;;;;;2.70;2.65;;;;;;;4.69;39.72;101441.09;4952034;28;98618;-72
2021/03/27 12:14:53;;;;;;;3.45;3.35;;;;;;;4.70;38.44;101442.00;4974018;28;98527;-76
2021/03/27 12:17:39;;;;;;;3.22;3.05;;;;;;;4.72;39.49;101456.16;4957188;28;97039;-77
2021/03/27 12:20:22;;;;;;;3.45;3.35;;;;;;;4.79;39.60;101448.66;4969254;28;98321;-77
2021/03/27 12:22:54;;;;;;;3.65;3.30;;;;;;;4.88;37.52;101466.75;4971574;28;99450;-75
2021/03/27 12:25:46;;;;;;;3.55;3.30;;;;;;;4.99;38.45;101457.69;4973758;28;96769;-76
2021/03/27 12:28:23;;;;;;;3.08;2.97;;;;;;;5.14;37.80;101447.97;4969745;28;96881;-76
2021/03/27 12:30:54;;;;;;;3.45;3.30;;;;;;;5.25;37.46;101457.38;4971017;28;96906;-76